XAX567 RJFF-WMKK
Flight info
| Callsign | XAX567 |
|---|---|
| Flight time | N/A |
| Altitude | 38000 |
| Route | DGC V28 FUE Z40 IGMON A1 APU B1 ANLOT W4 TNN A577 KABAM/N0469F360 N892 MIKIN/N0468F390 N892 MIGUG/K0863F390 N892 MELAS/N0463F400 N892 KIBOL/N0409F280 G334 SAROX SAROX1J |
| Aircraft | A339/H-SADE1E2E3GHIJ3J5M1P2RWXY/LB2D1 |
Departure
| Time | N/A |
|---|---|
| Airport | Fukuoka Airport (RJFF) |
Arrival
| Time | 2026-05-07 16:55 |
|---|---|
| Airport | Kuala Lumpur International Airport (WMKK) |
| Time | Latitude | Longitude | Altitude | Speed | Heading |
|---|---|---|---|---|---|
| 2026-05-07 15:24 | 23.13910 | 120.20875 | 37984 ft | 494 kts | 199° |
| 2026-05-07 15:24 | 23.10527 | 120.20112 | 37981 ft | 498 kts | 193° |
| 2026-05-07 15:24 | 22.94991 | 120.17734 | 38019 ft | 498 kts | 192° |
| 2026-05-07 15:25 | 22.67485 | 120.13486 | 37918 ft | 501 kts | 192° |
| 2026-05-07 15:25 | 22.39939 | 120.09272 | 37942 ft | 500 kts | 192° |
| 2026-05-07 15:26 | 22.39803 | 120.09251 | 37942 ft | 500 kts | 192° |
| 2026-05-07 15:26 | 22.16829 | 120.05672 | 37977 ft | 498 kts | 191° |
| 2026-05-07 15:27 | 21.89341 | 120.01520 | 37946 ft | 498 kts | 191° |
| 2026-05-07 15:27 | 21.61955 | 119.97374 | 37921 ft | 496 kts | 191° |
| 2026-05-07 15:28 | 21.34722 | 119.93231 | 37944 ft | 494 kts | 191° |
| 2026-05-07 15:28 | 21.07536 | 119.89123 | 37973 ft | 491 kts | 190° |
| 2026-05-07 15:29 | 20.95481 | 119.83178 | 37949 ft | 478 kts | 226° |
| 2026-05-07 15:29 | 20.86141 | 119.73004 | 37915 ft | 480 kts | 227° |
| 2026-05-07 15:29 | 20.67279 | 119.52740 | 37909 ft | 482 kts | 227° |
| 2026-05-07 15:30 | 20.48303 | 119.32414 | 37904 ft | 484 kts | 227° |
| 2026-05-07 15:30 | 20.29282 | 119.12114 | 37900 ft | 485 kts | 227° |
| 2026-05-07 15:31 | 20.10203 | 118.91820 | 37943 ft | 485 kts | 228° |
| 2026-05-07 15:31 | 19.91057 | 118.71533 | 37946 ft | 485 kts | 228° |
| 2026-05-07 15:32 | 19.71872 | 118.51271 | 37893 ft | 487 kts | 228° |
| 2026-05-07 15:32 | 19.52684 | 118.31081 | 37934 ft | 486 kts | 228° |
| 2026-05-07 15:33 | 19.33490 | 118.10953 | 37947 ft | 484 kts | 228° |
| 2026-05-07 15:33 | 19.14306 | 117.90910 | 37884 ft | 485 kts | 227° |
| 2026-05-07 15:34 | 19.04330 | 117.80513 | 37916 ft | 484 kts | 227° |
| 2026-05-07 15:34 | 19.00351 | 117.76371 | 37916 ft | 484 kts | 227° |
| 2026-05-07 15:35 | 18.94744 | 117.70542 | 37919 ft | 483 kts | 227° |
| 2026-05-07 15:35 | 18.89982 | 117.65591 | 37914 ft | 483 kts | 227° |
| 2026-05-07 15:36 | 18.85194 | 117.60607 | 37916 ft | 483 kts | 227° |
| 2026-05-07 15:36 | 18.80405 | 117.55638 | 37915 ft | 483 kts | 227° |
| 2026-05-07 15:37 | 18.76383 | 117.51481 | 37912 ft | 483 kts | 227° |
| 2026-05-07 15:37 | 18.71584 | 117.46518 | 37912 ft | 483 kts | 227° |
| 2026-05-07 15:38 | 18.66791 | 117.41559 | 37914 ft | 483 kts | 227° |
| 2026-05-07 15:38 | 18.61996 | 117.36601 | 37915 ft | 483 kts | 226° |
| 2026-05-07 15:39 | 18.57195 | 117.31641 | 37915 ft | 483 kts | 226° |
| 2026-05-07 15:39 | 18.52428 | 117.26725 | 37912 ft | 483 kts | 226° |
| 2026-05-07 15:40 | 18.47622 | 117.21771 | 37909 ft | 483 kts | 226° |
| 2026-05-07 15:40 | 18.30066 | 117.03569 | 37899 ft | 483 kts | 226° |
| 2026-05-07 15:41 | 18.10789 | 116.83863 | 37892 ft | 484 kts | 225° |
| 2026-05-07 15:41 | 17.91461 | 116.64155 | 37906 ft | 484 kts | 224° |
| 2026-05-07 15:42 | 17.72108 | 116.44496 | 37889 ft | 484 kts | 225° |
| 2026-05-07 15:42 | 17.52773 | 116.24815 | 37895 ft | 484 kts | 225° |
| 2026-05-07 15:43 | 17.33412 | 116.05190 | 37874 ft | 485 kts | 225° |
| 2026-05-07 15:43 | 17.14035 | 115.85617 | 37908 ft | 484 kts | 225° |
| 2026-05-07 15:44 | 16.94627 | 115.66075 | 37949 ft | 483 kts | 225° |
| 2026-05-07 15:44 | 16.75170 | 115.46542 | 37865 ft | 486 kts | 225° |
| 2026-05-07 15:45 | 16.55692 | 115.27052 | 37891 ft | 486 kts | 225° |
| 2026-05-07 15:45 | 16.36169 | 115.07574 | 37940 ft | 485 kts | 225° |
| 2026-05-07 15:46 | 16.06819 | 114.78399 | 37934 ft | 486 kts | 225° |
| 2026-05-07 15:47 | 15.87238 | 114.59004 | 37859 ft | 488 kts | 225° |
| 2026-05-07 15:47 | 15.67591 | 114.39599 | 37923 ft | 486 kts | 225° |
| 2026-05-07 15:48 | 15.47941 | 114.20245 | 37888 ft | 488 kts | 225° |
| 2026-05-07 15:48 | 15.29365 | 114.02009 | 37871 ft | 488 kts | 225° |
| 2026-05-07 15:49 | 15.24100 | 113.97577 | 37900 ft | 489 kts | 216° |
| 2026-05-07 15:49 | 15.18571 | 113.93472 | 37897 ft | 489 kts | 218° |
| 2026-05-07 15:50 | 15.13063 | 113.89343 | 37899 ft | 489 kts | 217° |
| 2026-05-07 15:50 | 15.07536 | 113.85244 | 37897 ft | 489 kts | 217° |
| 2026-05-07 15:51 | 15.02043 | 113.81184 | 37896 ft | 489 kts | 217° |
| 2026-05-07 15:51 | 14.96494 | 113.77099 | 37895 ft | 489 kts | 217° |
| 2026-05-07 15:52 | 14.86795 | 113.69915 | 37895 ft | 490 kts | 217° |
| 2026-05-07 15:52 | 14.64600 | 113.53557 | 37912 ft | 489 kts | 217° |
| 2026-05-07 15:53 | 14.42419 | 113.37219 | 37931 ft | 489 kts | 217° |
| 2026-05-07 15:53 | 14.20259 | 113.20878 | 37927 ft | 488 kts | 216° |
| 2026-05-07 15:54 | 13.98115 | 113.04583 | 37929 ft | 488 kts | 216° |
| 2026-05-07 15:54 | 13.75979 | 112.88372 | 37925 ft | 488 kts | 216° |
| 2026-05-07 15:55 | 13.53825 | 112.72182 | 37919 ft | 487 kts | 216° |
| 2026-05-07 15:55 | 13.31684 | 112.56040 | 37925 ft | 487 kts | 216° |
| 2026-05-07 15:56 | 13.09552 | 112.39944 | 37916 ft | 487 kts | 216° |
| 2026-05-07 15:56 | 12.87383 | 112.23935 | 37901 ft | 487 kts | 215° |
| 2026-05-07 15:57 | 12.65256 | 112.07901 | 37916 ft | 486 kts | 216° |
| 2026-05-07 15:57 | 12.43153 | 111.91885 | 37857 ft | 488 kts | 216° |
| 2026-05-07 15:58 | 12.21040 | 111.75831 | 37906 ft | 486 kts | 216° |
| 2026-05-07 15:58 | 11.99035 | 111.59852 | 37912 ft | 485 kts | 216° |
| 2026-05-07 15:59 | 11.77032 | 111.43923 | 37861 ft | 485 kts | 216° |
| 2026-05-07 15:59 | 11.55046 | 111.28039 | 37879 ft | 485 kts | 216° |
| 2026-05-07 16:00 | 11.32821 | 111.12016 | 37893 ft | 481 kts | 217° |
| 2026-05-07 16:00 | 11.10723 | 110.96309 | 37870 ft | 480 kts | 216° |
| 2026-05-07 16:01 | 10.88874 | 110.80830 | 37866 ft | 478 kts | 217° |
| 2026-05-07 16:01 | 10.67106 | 110.65437 | 37885 ft | 476 kts | 217° |
| 2026-05-07 16:02 | 10.45334 | 110.50068 | 37848 ft | 477 kts | 217° |
| 2026-05-07 16:02 | 10.23544 | 110.34714 | 37851 ft | 478 kts | 216° |
| 2026-05-07 16:03 | 10.01742 | 110.19303 | 37884 ft | 477 kts | 216° |
| 2026-05-07 16:03 | 9.79977 | 110.03943 | 37879 ft | 476 kts | 216° |
| 2026-05-07 16:04 | 9.58207 | 109.88606 | 37878 ft | 476 kts | 216° |
| 2026-05-07 16:04 | 9.36449 | 109.73313 | 37851 ft | 477 kts | 216° |
| 2026-05-07 16:05 | 9.14653 | 109.58021 | 37838 ft | 477 kts | 216° |
| 2026-05-07 16:05 | 8.92835 | 109.42737 | 37863 ft | 478 kts | 216° |
| 2026-05-07 16:06 | 8.70896 | 109.27434 | 37865 ft | 480 kts | 216° |
| 2026-05-07 16:06 | 8.48845 | 109.12117 | 37837 ft | 483 kts | 216° |
| 2026-05-07 16:07 | 8.26676 | 108.96739 | 37877 ft | 483 kts | 216° |
| 2026-05-07 16:07 | 8.04483 | 108.81365 | 37860 ft | 484 kts | 216° |
| 2026-05-07 16:08 | 7.82289 | 108.66012 | 37873 ft | 483 kts | 216° |
| 2026-05-07 16:08 | 7.60098 | 108.50680 | 37858 ft | 484 kts | 216° |
| 2026-05-07 16:09 | 7.37866 | 108.35338 | 37860 ft | 486 kts | 215° |
| 2026-05-07 16:09 | 7.17314 | 108.21176 | 37867 ft | 489 kts | 214° |
| 2026-05-07 16:10 | 7.06087 | 108.13438 | 37863 ft | 489 kts | 214° |
| 2026-05-07 16:10 | 6.95925 | 108.06307 | 37867 ft | 488 kts | 215° |
| 2026-05-07 16:11 | 6.90355 | 108.02383 | 37870 ft | 488 kts | 215° |
| 2026-05-07 16:11 | 6.84773 | 107.98491 | 37866 ft | 488 kts | 214° |
| 2026-05-07 16:12 | 6.79183 | 107.94605 | 37868 ft | 489 kts | 214° |
| 2026-05-07 16:12 | 6.73630 | 107.90748 | 37868 ft | 489 kts | 214° |
| 2026-05-07 16:13 | 6.68024 | 107.86854 | 37864 ft | 489 kts | 214° |
| 2026-05-07 16:13 | 6.62426 | 107.82964 | 37878 ft | 489 kts | 214° |
| 2026-05-07 16:14 | 6.56828 | 107.79076 | 37874 ft | 489 kts | 214° |
| 2026-05-07 16:14 | 6.51241 | 107.75195 | 37868 ft | 487 kts | 214° |
| 2026-05-07 16:15 | 6.45666 | 107.71323 | 37865 ft | 487 kts | 214° |
| 2026-05-07 16:15 | 6.40092 | 107.67452 | 37870 ft | 487 kts | 214° |
| 2026-05-07 16:16 | 6.34516 | 107.63581 | 37871 ft | 487 kts | 214° |
| 2026-05-07 16:16 | 6.25426 | 107.57272 | 37867 ft | 487 kts | 214° |
| 2026-05-07 16:17 | 6.14279 | 107.49537 | 37872 ft | 487 kts | 214° |
| 2026-05-07 16:17 | 6.05002 | 107.43103 | 37876 ft | 487 kts | 214° |
| 2026-05-07 16:18 | 5.91966 | 107.34065 | 37874 ft | 487 kts | 214° |
| 2026-05-07 16:18 | 5.82686 | 107.27634 | 37868 ft | 488 kts | 214° |
| 2026-05-07 16:19 | 5.71518 | 107.19897 | 37871 ft | 488 kts | 214° |
| 2026-05-07 16:19 | 5.60334 | 107.12152 | 37872 ft | 488 kts | 214° |
| 2026-05-07 16:20 | 5.49155 | 107.04413 | 37873 ft | 488 kts | 214° |
| 2026-05-07 16:20 | 5.37978 | 106.96679 | 37869 ft | 488 kts | 214° |
| 2026-05-07 16:21 | 5.26812 | 106.88956 | 37870 ft | 488 kts | 214° |
| 2026-05-07 16:21 | 5.13632 | 106.79845 | 37866 ft | 488 kts | 214° |
| 2026-05-07 16:22 | 4.91295 | 106.64416 | 37872 ft | 487 kts | 214° |
| 2026-05-07 16:22 | 4.69009 | 106.49032 | 37867 ft | 487 kts | 213° |
| 2026-05-07 16:23 | 4.46700 | 106.33645 | 37847 ft | 487 kts | 213° |
| 2026-05-07 16:23 | 4.25363 | 106.17133 | 37864 ft | 487 kts | 230° |
| 2026-05-07 16:24 | 4.08295 | 105.96036 | 37887 ft | 486 kts | 230° |
| 2026-05-07 16:24 | 3.91263 | 105.75072 | 37862 ft | 485 kts | 230° |
| 2026-05-07 16:25 | 3.74174 | 105.54190 | 37852 ft | 484 kts | 229° |
| 2026-05-07 16:25 | 3.57210 | 105.33226 | 37888 ft | 485 kts | 230° |
| 2026-05-07 16:26 | 3.40193 | 105.12173 | 37856 ft | 487 kts | 230° |
| 2026-05-07 16:26 | 3.23128 | 104.91140 | 37861 ft | 487 kts | 230° |
| 2026-05-07 16:27 | 3.06153 | 104.70221 | 37867 ft | 488 kts | 230° |
| 2026-05-07 16:27 | 2.96943 | 104.58897 | 37868 ft | 487 kts | 230° |
| 2026-05-07 16:28 | 2.92648 | 104.53649 | 37874 ft | 487 kts | 230° |
| 2026-05-07 16:28 | 2.89268 | 104.47798 | 37868 ft | 489 kts | 250° |
| 2026-05-07 16:29 | 2.88013 | 104.41136 | 37868 ft | 490 kts | 269° |
| 2026-05-07 16:29 | 2.88555 | 104.34349 | 37871 ft | 490 kts | 276° |
| 2026-05-07 16:30 | 2.90651 | 104.12356 | 37868 ft | 491 kts | 275° |
| 2026-05-07 16:30 | 2.89543 | 103.89948 | 37883 ft | 491 kts | 266° |
| 2026-05-07 16:31 | 2.88655 | 103.76316 | 37878 ft | 491 kts | 266° |
| 2026-05-07 16:31 | 2.87754 | 103.62692 | 37882 ft | 491 kts | 265° |
| 2026-05-07 16:32 | 2.87193 | 103.55792 | 37883 ft | 490 kts | 265° |
| 2026-05-07 16:32 | 2.86635 | 103.48999 | 37885 ft | 490 kts | 265° |
| 2026-05-07 16:33 | 2.86216 | 103.43714 | 37883 ft | 489 kts | 265° |
| 2026-05-07 16:33 | 2.85668 | 103.36932 | 37885 ft | 489 kts | 265° |
| 2026-05-07 16:34 | 2.85123 | 103.30152 | 37886 ft | 489 kts | 265° |
| 2026-05-07 16:34 | 2.84851 | 103.26761 | 37688 ft | 489 kts | 265° |
| 2026-05-07 16:34 | 2.84579 | 103.23368 | 37127 ft | 490 kts | 265° |
| 2026-05-07 16:34 | 2.84306 | 103.19966 | 36253 ft | 493 kts | 265° |
| 2026-05-07 16:35 | 2.84029 | 103.16522 | 35144 ft | 500 kts | 265° |
| 2026-05-07 16:35 | 2.83750 | 103.13039 | 33887 ft | 506 kts | 265° |
| 2026-05-07 16:35 | 2.83466 | 103.09509 | 32450 ft | 510 kts | 265° |
| 2026-05-07 16:35 | 2.83182 | 103.05977 | 30818 ft | 510 kts | 265° |
| 2026-05-07 16:36 | 2.82897 | 103.02436 | 29423 ft | 508 kts | 265° |
| 2026-05-07 16:36 | 2.82616 | 102.98939 | 28281 ft | 501 kts | 265° |
| 2026-05-07 16:36 | 2.82340 | 102.95499 | 27455 ft | 490 kts | 265° |
| 2026-05-07 16:36 | 2.82070 | 102.92153 | 26912 ft | 474 kts | 265° |
| 2026-05-07 16:37 | 2.81808 | 102.88904 | 26625 ft | 465 kts | 265° |
| 2026-05-07 16:37 | 2.81546 | 102.85665 | 26384 ft | 470 kts | 265° |
| 2026-05-07 16:37 | 2.81019 | 102.82446 | 26008 ft | 468 kts | 255° |
| 2026-05-07 16:37 | 2.79940 | 102.79415 | 25104 ft | 469 kts | 244° |
| 2026-05-07 16:38 | 2.78390 | 102.76520 | 23856 ft | 475 kts | 238° |
| 2026-05-07 16:38 | 2.76680 | 102.73691 | 22784 ft | 473 kts | 237° |
| 2026-05-07 16:38 | 2.75001 | 102.70913 | 21945 ft | 460 kts | 238° |
| 2026-05-07 16:38 | 2.73401 | 102.68196 | 21212 ft | 446 kts | 239° |
| 2026-05-07 16:39 | 2.71879 | 102.65551 | 20496 ft | 433 kts | 239° |
| 2026-05-07 16:39 | 2.70408 | 102.62957 | 19820 ft | 427 kts | 239° |
| 2026-05-07 16:39 | 2.68953 | 102.60377 | 19134 ft | 425 kts | 239° |
| 2026-05-07 16:39 | 2.67506 | 102.57805 | 18481 ft | 422 kts | 239° |
| 2026-05-07 16:40 | 2.66074 | 102.55259 | 17760 ft | 419 kts | 239° |
| 2026-05-07 16:40 | 2.64651 | 102.52730 | 17006 ft | 415 kts | 239° |
| 2026-05-07 16:40 | 2.63239 | 102.50223 | 16277 ft | 411 kts | 240° |
| 2026-05-07 16:40 | 2.61842 | 102.47742 | 15563 ft | 407 kts | 240° |
| 2026-05-07 16:41 | 2.60460 | 102.45288 | 14858 ft | 403 kts | 240° |
| 2026-05-07 16:41 | 2.59093 | 102.42860 | 14171 ft | 398 kts | 240° |
| 2026-05-07 16:41 | 2.57740 | 102.40458 | 13487 ft | 394 kts | 240° |
| 2026-05-07 16:41 | 2.56403 | 102.38085 | 12734 ft | 390 kts | 240° |
| 2026-05-07 16:42 | 2.55079 | 102.35733 | 11991 ft | 385 kts | 240° |
| 2026-05-07 16:42 | 2.53774 | 102.33416 | 11280 ft | 380 kts | 240° |
| 2026-05-07 16:42 | 2.52483 | 102.31123 | 10580 ft | 376 kts | 240° |
| 2026-05-07 16:42 | 2.51211 | 102.28864 | 9892 ft | 371 kts | 240° |
| 2026-05-07 16:43 | 2.49952 | 102.26630 | 9142 ft | 366 kts | 240° |
| 2026-05-07 16:43 | 2.48720 | 102.24444 | 8404 ft | 355 kts | 240° |
| 2026-05-07 16:43 | 2.47531 | 102.22334 | 7694 ft | 341 kts | 240° |
| 2026-05-07 16:43 | 2.46415 | 102.20351 | 7552 ft | 312 kts | 240° |
| 2026-05-07 16:44 | 2.45400 | 102.18548 | 7440 ft | 285 kts | 240° |
| 2026-05-07 16:44 | 2.44420 | 102.16810 | 7340 ft | 290 kts | 240° |
| 2026-05-07 16:44 | 2.43557 | 102.14999 | 7202 ft | 289 kts | 254° |
| 2026-05-07 16:44 | 2.43382 | 102.13001 | 7089 ft | 289 kts | 273° |
| 2026-05-07 16:45 | 2.43562 | 102.10998 | 6766 ft | 289 kts | 277° |
| 2026-05-07 16:45 | 2.43802 | 102.09023 | 6426 ft | 284 kts | 277° |
| 2026-05-07 16:45 | 2.44030 | 102.07069 | 6069 ft | 283 kts | 276° |
| 2026-05-07 16:45 | 2.44232 | 102.05106 | 5700 ft | 283 kts | 276° |
| 2026-05-07 16:46 | 2.44414 | 102.03155 | 5334 ft | 281 kts | 275° |
| 2026-05-07 16:46 | 2.44583 | 102.01213 | 4972 ft | 280 kts | 275° |
| 2026-05-07 16:46 | 2.44748 | 101.99280 | 4620 ft | 279 kts | 275° |
| 2026-05-07 16:46 | 2.44911 | 101.97351 | 4247 ft | 277 kts | 275° |
| 2026-05-07 16:47 | 2.45073 | 101.95443 | 3881 ft | 270 kts | 275° |
| 2026-05-07 16:47 | 2.45229 | 101.93608 | 3519 ft | 260 kts | 275° |
| 2026-05-07 16:47 | 2.45381 | 101.91828 | 3156 ft | 254 kts | 275° |
| 2026-05-07 16:47 | 2.45529 | 101.90105 | 2967 ft | 242 kts | 275° |
| 2026-05-07 16:48 | 2.45670 | 101.88460 | 2751 ft | 234 kts | 275° |
| 2026-05-07 16:48 | 2.46018 | 101.86900 | 2568 ft | 234 kts | 295° |
| 2026-05-07 16:48 | 2.47011 | 101.85632 | 2506 ft | 231 kts | 323° |
| 2026-05-07 16:48 | 2.48290 | 101.84811 | 2498 ft | 213 kts | 330° |
| 2026-05-07 16:49 | 2.49501 | 101.84052 | 2499 ft | 198 kts | 329° |
| 2026-05-07 16:49 | 2.50648 | 101.83313 | 2507 ft | 198 kts | 329° |
| 2026-05-07 16:49 | 2.51790 | 101.82570 | 2506 ft | 189 kts | 328° |
| 2026-05-07 16:49 | 2.52828 | 101.81866 | 2492 ft | 173 kts | 326° |
| 2026-05-07 16:50 | 2.53811 | 101.81157 | 2509 ft | 177 kts | 326° |
| 2026-05-07 16:50 | 2.54819 | 101.80453 | 2467 ft | 175 kts | 327° |
| 2026-05-07 16:50 | 2.55818 | 101.79785 | 2283 ft | 170 kts | 327° |
| 2026-05-07 16:50 | 2.56803 | 101.79122 | 1905 ft | 172 kts | 328° |
| 2026-05-07 16:51 | 2.57798 | 101.78457 | 1543 ft | 172 kts | 328° |
| 2026-05-07 16:51 | 2.58774 | 101.77806 | 1336 ft | 169 kts | 328° |
| 2026-05-07 16:51 | 2.59767 | 101.77143 | 1335 ft | 172 kts | 328° |
| 2026-05-07 16:51 | 2.60749 | 101.76481 | 1315 ft | 170 kts | 328° |
| 2026-05-07 16:52 | 2.61738 | 101.75822 | 1330 ft | 171 kts | 327° |
| 2026-05-07 16:52 | 2.62729 | 101.75155 | 1332 ft | 172 kts | 327° |
| 2026-05-07 16:52 | 2.63718 | 101.74489 | 1337 ft | 171 kts | 328° |
| 2026-05-07 16:52 | 2.64669 | 101.73858 | 1343 ft | 155 kts | 328° |
| 2026-05-07 16:53 | 2.65565 | 101.73260 | 1254 ft | 158 kts | 328° |
| 2026-05-07 16:53 | 2.66459 | 101.72659 | 1029 ft | 151 kts | 328° |
| 2026-05-07 16:53 | 2.67344 | 101.72068 | 852 ft | 152 kts | 327° |
| 2026-05-07 16:53 | 2.68214 | 101.71486 | 667 ft | 152 kts | 328° |
| 2026-05-07 16:54 | 2.69073 | 101.70913 | 471 ft | 145 kts | 327° |
| 2026-05-07 16:54 | 2.69920 | 101.70341 | 296 ft | 147 kts | 327° |
| 2026-05-07 16:54 | 2.70772 | 101.69780 | 150 ft | 149 kts | 327° |
| 2026-05-07 16:54 | 2.71618 | 101.69230 | 47 ft | 135 kts | 327° |
| 2026-05-07 16:55 | 2.72325 | 101.68757 | 41 ft | 111 kts | 325° |
| 2026-05-07 16:55 | 2.72787 | 101.68440 | 46 ft | 60 kts | 329° |
| 2026-05-07 16:55 | 2.73002 | 101.68347 | 45 ft | 17 kts | 343° |
| 2026-05-07 16:55 | 2.73018 | 101.68342 | 45 ft | 0 kts | 345° |
| 2026-05-07 16:56 | 2.73029 | 101.68341 | 44 ft | 6 kts | 354° |
| 2026-05-07 16:56 | 2.73162 | 101.68381 | 43 ft | 0 kts | 1° |
| 2026-05-07 16:57 | 2.73177 | 101.68377 | 43 ft | 13 kts | 351° |
| 2026-05-07 16:57 | 2.73322 | 101.68408 | 48 ft | 19 kts | 29° |
| 2026-05-07 16:57 | 2.73378 | 101.68493 | 48 ft | 14 kts | 60° |
| 2026-05-07 16:57 | 2.73439 | 101.68559 | 51 ft | 13 kts | 28° |
| 2026-05-07 16:58 | 2.73517 | 101.68568 | 49 ft | 10 kts | 6° |
| 2026-05-07 16:58 | 2.73573 | 101.68608 | 47 ft | 10 kts | 44° |
| 2026-05-07 16:58 | 2.73611 | 101.68670 | 51 ft | 11 kts | 62° |
| 2026-05-07 16:58 | 2.73655 | 101.68738 | 48 ft | 12 kts | 57° |
| 2026-05-07 16:59 | 2.73705 | 101.68813 | 49 ft | 14 kts | 55° |
| 2026-05-07 16:59 | 2.73761 | 101.68893 | 50 ft | 15 kts | 55° |
| 2026-05-07 16:59 | 2.73822 | 101.68980 | 50 ft | 16 kts | 55° |
| 2026-05-07 16:59 | 2.73827 | 101.68987 | 49 ft | 0 kts | 55° |
| 2026-05-07 17:01 | 2.73831 | 101.68845 | 49 ft | 0 kts | 281° |
| 2026-05-07 17:02 | 2.73799 | 101.68769 | 49 ft | 0 kts | 326° |
| 2026-05-07 17:03 | 2.73987 | 101.69058 | 49 ft | 0 kts | 327° |
| 2026-05-07 17:04 | 2.73929 | 101.68699 | 47 ft | 0 kts | 146° |